Time;durP1;ratioP1;P1;durP2;ratioP2;P2;SDS_P1;SDS_P2;PMS_P1;PMS_P2;Temp;Humidity;BMP_temperature;BMP_pressure;BME280_temperature;BME280_humidity;BME280_pressure;Samples;Min_cycle;Max_cycle;Signal;HPM_P1;HPM_P2
2023/09/17 00:01:50;;;;;;;2.45;1.40;;;;;;;;;;4986840;28;20037;-59
2023/09/17 00:04:17;;;;;;;3.47;1.92;;;;;;;;;;4990044;28;20108;-59
2023/09/17 00:06:44;;;;;;;2.08;0.90;;;;;;;;;;4992645;28;20513;-59
2023/09/17 00:09:10;;;;;;;2.92;1.10;;;;;;;;;;4993385;28;20030;-59
2023/09/17 00:11:37;;;;;;;1.30;1.00;;;;;;;;;;4993138;28;20568;-58
2023/09/17 00:14:04;;;;;;;1.98;1.30;;;;;;;;;;4993286;28;20027;-59
2023/09/17 00:16:31;;;;;;;1.35;0.90;;;;;;;;;;4990876;28;20042;-58
2023/09/17 00:18:58;;;;;;;18.05;1.13;;;;;;;;;;4988007;28;20034;-59
2023/09/17 00:21:25;;;;;;;1.48;0.90;;;;;;;;;;4992153;28;20032;-59
2023/09/17 00:23:51;;;;;;;1.33;0.95;;;;;;;;;;4993996;28;20050;-59
2023/09/17 00:26:18;;;;;;;1.15;0.90;;;;;;;;;;4988252;28;20027;-60
2023/09/17 00:28:45;;;;;;;1.48;0.98;;;;;;;;;;4992828;28;20093;-59
2023/09/17 00:31:11;;;;;;;4.47;2.20;;;;;;;;;;4992818;28;20023;-59
2023/09/17 00:33:38;;;;;;;2.10;1.15;;;;;;;;;;4991472;28;20037;-59
2023/09/17 00:36:05;;;;;;;1.70;1.10;;;;;;;;;;4990948;28;20038;-59
2023/09/17 00:38:31;;;;;;;4.35;2.85;;;;;;;;;;4990573;28;20482;-59
2023/09/17 00:41:00;;;;;;;0.80;0.57;;;;;;;;;;4985594;28;20034;-58
2023/09/17 00:43:27;;;;;;;4.38;0.95;;;;;;;;;;4985680;28;20035;-59
2023/09/17 00:45:54;;;;;;;2.22;1.30;;;;;;;;;;4985848;28;20018;-58
2023/09/17 00:48:21;;;;;;;1.02;0.88;;;;;;;;;;4986137;28;20030;-58
2023/09/17 00:50:48;;;;;;;1.58;0.90;;;;;;;;;;4991905;28;20038;-58
2023/09/17 00:53:16;;;;;;;0.75;0.70;;;;;;;;;;4992763;28;20037;-58
2023/09/17 00:55:42;;;;;;;4.88;1.15;;;;;;;;;;4992493;28;20478;-58
2023/09/17 00:58:09;;;;;;;2.45;0.77;;;;;;;;;;4992585;28;20053;-59
2023/09/17 01:00:38;;;;;;;1.27;0.88;;;;;;;;;;4992576;28;20089;-58
2023/09/17 01:03:06;;;;;;;1.55;0.95;;;;;;;;;;4987405;28;20034;-59
2023/09/17 01:05:39;;;;;;;1.42;0.93;;;;;;;;;;4987122;28;20030;-58
2023/09/17 01:08:10;;;;;;;2.20;1.40;;;;;;;;;;4987005;28;20471;-58
2023/09/17 01:10:40;;;;;;;8.63;1.70;;;;;;;;;;4986949;28;20058;-59
2023/09/17 01:13:08;;;;;;;2.38;1.02;;;;;;;;;;4991167;28;20026;-58
2023/09/17 01:15:35;;;;;;;2.45;1.23;;;;;;;;;;4992142;28;20486;-59
2023/09/17 01:18:03;;;;;;;1.73;1.30;;;;;;;;;;4991982;28;20041;-59
2023/09/17 01:20:31;;;;;;;5.00;0.98;;;;;;;;;;4991725;28;20478;-58
2023/09/17 01:23:02;;;;;;;1.95;1.25;;;;;;;;;;4992212;28;20105;-58
2023/09/17 01:25:33;;;;;;;6.00;1.73;;;;;;;;;;4987917;28;20058;-58
2023/09/17 01:28:01;;;;;;;27.40;2.38;;;;;;;;;;4987100;28;20034;-59
2023/09/17 01:30:28;;;;;;;32.60;2.90;;;;;;;;;;4986744;28;20501;-58
2023/09/17 01:32:56;;;;;;;1.23;0.90;;;;;;;;;;4986924;28;20304;-58
2023/09/17 01:35:23;;;;;;;3.47;1.00;;;;;;;;;;4990007;28;20035;-58
2023/09/17 01:37:54;;;;;;;1.73;1.20;;;;;;;;;;4992201;28;20035;-58
2023/09/17 01:40:21;;;;;;;1.50;0.87;;;;;;;;;;4992149;28;20030;-58
2023/09/17 01:42:49;;;;;;;8.97;1.50;;;;;;;;;;4992207;28;20030;-58
2023/09/17 01:45:19;;;;;;;2.50;1.23;;;;;;;;;;4991531;28;20478;-58
2023/09/17 01:47:47;;;;;;;1.10;0.60;;;;;;;;;;4988253;28;20041;-59
2023/09/17 01:50:17;;;;;;;1.23;0.97;;;;;;;;;;4986711;28;20038;-59
2023/09/17 01:52:45;;;;;;;0.90;0.83;;;;;;;;;;4988379;28;20034;-59
2023/09/17 01:55:12;;;;;;;2.10;1.43;;;;;;;;;;4990598;28;20383;-58
2023/09/17 01:57:39;;;;;;;0.80;0.70;;;;;;;;;;5007924;28;20058;-59
2023/09/17 02:00:16;;;;;;;1.43;0.90;;;;;;;;;;4995287;28;20035;-58
2023/09/17 02:02:47;;;;;;;1.17;0.83;;;;;;;;;;4995181;28;20057;-58
2023/09/17 02:05:16;;;;;;;1.20;0.87;;;;;;;;;;4995178;28;20516;-58
2023/09/17 02:07:46;;;;;;;5.20;1.40;;;;;;;;;;4994441;28;20022;-59
2023/09/17 02:10:13;;;;;;;4.00;1.20;;;;;;;;;;4992119;28;20058;-58
2023/09/17 02:12:40;;;;;;;2.63;1.30;;;;;;;;;;4990031;28;20033;-58
2023/09/17 02:15:09;;;;;;;3.43;0.93;;;;;;;;;;4989751;28;20109;-58
2023/09/17 02:17:36;;;;;;;2.37;1.20;;;;;;;;;;4989659;28;20056;-58
2023/09/17 02:20:04;;;;;;;1.50;1.13;;;;;;;;;;4992307;28;20061;-58
2023/09/17 02:22:31;;;;;;;2.57;1.40;;;;;;;;;;4995280;28;20038;-58
2023/09/17 02:24:58;;;;;;;6.07;1.10;;;;;;;;;;4994766;28;20438;-57
2023/09/17 02:27:24;;;;;;;2.40;1.23;;;;;;;;;;4995056;28;20027;-57
2023/09/17 02:29:51;;;;;;;3.73;1.97;;;;;;;;;;4995148;28;20445;-58
2023/09/17 02:32:19;;;;;;;3.60;1.97;;;;;;;;;;4992685;28;20057;-58
2023/09/17 02:34:46;;;;;;;15.20;2.13;;;;;;;;;;4989314;28;20042;-58
2023/09/17 02:37:13;;;;;;;3.43;2.03;;;;;;;;;;4989511;28;20042;-58
2023/09/17 02:39:39;;;;;;;3.33;2.10;;;;;;;;;;4989593;28;20037;-59
2023/09/17 02:42:06;;;;;;;2.40;1.43;;;;;;;;;;4990881;28;20026;-58
2023/09/17 02:44:33;;;;;;;3.83;1.83;;;;;;;;;;4994306;28;20385;-58
2023/09/17 02:46:59;;;;;;;2.20;1.23;;;;;;;;;;4994881;28;20022;-58
2023/09/17 02:49:27;;;;;;;2.60;1.87;;;;;;;;;;4994706;28;20453;-58
2023/09/17 02:51:53;;;;;;;3.40;1.90;;;;;;;;;;4994516;28;20568;-58
2023/09/17 02:54:20;;;;;;;5.03;1.40;;;;;;;;;;4993299;28;20037;-58
2023/09/17 02:56:47;;;;;;;2.57;1.40;;;;;;;;;;4989083;28;20034;-58
2023/09/17 02:59:14;;;;;;;3.87;1.63;;;;;;;;;;4989239;28;20100;-58
2023/09/17 03:01:41;;;;;;;5.83;2.00;;;;;;;;;;4989049;28;20038;-58
2023/09/17 03:04:08;;;;;;;23.47;1.33;;;;;;;;;;4988458;28;20019;-58
2023/09/17 03:06:34;;;;;;;6.60;1.53;;;;;;;;;;4994202;28;20106;-58
2023/09/17 03:09:02;;;;;;;2.93;1.80;;;;;;;;;;4994167;28;20888;-59
2023/09/17 03:11:29;;;;;;;2.57;1.63;;;;;;;;;;4994244;28;20088;-58
2023/09/17 03:13:56;;;;;;;4.10;1.30;;;;;;;;;;4994191;28;20362;-58
2023/09/17 03:16:23;;;;;;;3.93;1.73;;;;;;;;;;4993629;28;20073;-58
2023/09/17 03:18:50;;;;;;;2.87;1.83;;;;;;;;;;4988935;28;20045;-58
2023/09/17 03:21:18;;;;;;;3.57;1.57;;;;;;;;;;4988808;28;20065;-58
2023/09/17 03:23:45;;;;;;;3.23;1.40;;;;;;;;;;4988378;28;20348;-58
2023/09/17 03:26:11;;;;;;;3.60;1.70;;;;;;;;;;4988495;28;20492;-58
2023/09/17 03:28:38;;;;;;;2.07;1.30;;;;;;;;;;4993303;28;20557;-58
2023/09/17 03:31:05;;;;;;;2.50;1.43;;;;;;;;;;4993816;28;20050;-58
2023/09/17 03:33:31;;;;;;;6.30;2.03;;;;;;;;;;4993885;28;20026;-58
2023/09/17 03:36:03;;;;;;;3.00;2.07;;;;;;;;;;4993724;28;20057;-58
2023/09/17 03:38:29;;;;;;;2.33;1.43;;;;;;;;;;4993730;28;20393;-58
2023/09/17 03:40:59;;;;;;;8.67;2.13;;;;;;;;;;4988959;28;20131;-58
2023/09/17 03:43:27;;;;;;;1.57;1.23;;;;;;;;;;4988427;28;20113;-57
2023/09/17 03:45:54;;;;;;;3.03;2.10;;;;;;;;;;4988185;28;20038;-58
2023/09/17 03:48:21;;;;;;;10.70;1.40;;;;;;;;;;4988130;28;20036;-58
2023/09/17 03:50:49;;;;;;;4.33;2.10;;;;;;;;;;4991917;28;20038;-58
2023/09/17 03:53:16;;;;;;;4.97;2.07;;;;;;;;;;4993497;28;20030;-58
2023/09/17 03:55:42;;;;;;;1.73;1.30;;;;;;;;;;5008406;28;20033;-58
2023/09/17 03:58:10;;;;;;;2.60;1.60;;;;;;;;;;4993398;28;20039;-58
2023/09/17 04:00:36;;;;;;;1.53;1.27;;;;;;;;;;4992753;28;20022;-57
2023/09/17 04:03:05;;;;;;;2.37;1.43;;;;;;;;;;4989546;28;20026;-57
2023/09/17 04:05:32;;;;;;;4.10;1.57;;;;;;;;;;4986733;28;20516;-58
2023/09/17 04:07:59;;;;;;;7.00;2.40;;;;;;;;;;4987408;28;20517;-58
2023/09/17 04:10:26;;;;;;;3.00;2.17;;;;;;;;;;4987911;28;20072;-57
2023/09/17 04:12:52;;;;;;;2.17;1.67;;;;;;;;;;4979395;28;20038;-57
2023/09/17 04:15:20;;;;;;;9.37;1.93;;;;;;;;;;4982561;28;20019;-58
2023/09/17 04:17:47;;;;;;;2.90;1.97;;;;;;;;;;4983834;28;20042;-58
2023/09/17 04:20:18;;;;;;;4.77;2.57;;;;;;;;;;4989394;28;20034;-58
2023/09/17 04:22:49;;;;;;;9.30;2.70;;;;;;;;;;4992713;28;20029;-58
2023/09/17 04:25:17;;;;;;;5.80;2.10;;;;;;;;;;4989579;28;20660;-58
2023/09/17 04:27:44;;;;;;;2.23;1.73;;;;;;;;;;4987536;28;20031;-57
2023/09/17 04:30:13;;;;;;;3.03;1.90;;;;;;;;;;4977925;28;20030;-58
2023/09/17 04:32:41;;;;;;;5.03;2.93;;;;;;;;;;4987758;28;20386;-58
2023/09/17 04:35:11;;;;;;;3.23;2.00;;;;;;;;;;4989556;28;20041;-58
2023/09/17 04:37:39;;;;;;;3.30;2.33;;;;;;;;;;4992089;28;20172;-57
2023/09/17 04:40:09;;;;;;;4.23;2.43;;;;;;;;;;4992104;28;20041;-58
2023/09/17 04:42:36;;;;;;;2.40;1.70;;;;;;;;;;4992913;28;20022;-58
2023/09/17 04:45:04;;;;;;;3.63;2.30;;;;;;;;;;4992399;28;20065;-57
2023/09/17 04:47:34;;;;;;;3.10;1.73;;;;;;;;;;4975267;28;20486;-58
2023/09/17 04:50:02;;;;;;;3.13;2.30;;;;;;;;;;4987441;28;20038;-57
2023/09/17 04:52:28;;;;;;;11.40;3.33;;;;;;;;;;4987137;28;20030;-57
2023/09/17 04:54:55;;;;;;;3.53;1.77;;;;;;;;;;4987368;28;20501;-57
2023/09/17 04:57:22;;;;;;;4.50;2.57;;;;;;;;;;4988458;28;20038;-57
2023/09/17 04:59:49;;;;;;;6.33;2.27;;;;;;;;;;4992451;28;20033;-57
2023/09/17 05:02:16;;;;;;;3.20;2.30;;;;;;;;;;4992095;28;20034;-58
2023/09/17 05:04:46;;;;;;;2.33;1.67;;;;;;;;;;4992115;28;20473;-57
2023/09/17 05:07:13;;;;;;;5.70;1.87;;;;;;;;;;4992183;28;20027;-57
2023/09/17 05:09:40;;;;;;;3.10;2.07;;;;;;;;;;4991120;28;20097;-57
2023/09/17 05:12:08;;;;;;;2.13;1.73;;;;;;;;;;4986874;28;20035;-57
2023/09/17 05:14:35;;;;;;;3.63;2.33;;;;;;;;;;4986601;28;20053;-58
2023/09/17 05:17:02;;;;;;;3.80;2.23;;;;;;;;;;5000375;28;20142;-58
2023/09/17 05:19:29;;;;;;;3.40;2.20;;;;;;;;;;5006508;28;20038;-57
2023/09/17 05:21:56;;;;;;;4.43;1.73;;;;;;;;;;4992404;28;20084;-57
2023/09/17 05:24:22;;;;;;;1.80;1.40;;;;;;;;;;4992526;28;20101;-57
2023/09/17 05:26:50;;;;;;;3.60;1.80;;;;;;;;;;4994337;28;20031;-57
2023/09/17 05:29:16;;;;;;;2.90;1.77;;;;;;;;;;4996011;28;20026;-57
2023/09/17 05:31:43;;;;;;;4.30;2.03;;;;;;;;;;4995898;28;20038;-57
2023/09/17 05:34:10;;;;;;;2.53;1.83;;;;;;;;;;4989115;28;20037;-57
2023/09/17 05:36:37;;;;;;;5.27;1.93;;;;;;;;;;4989082;28;20104;-57
2023/09/17 05:39:04;;;;;;;7.07;2.40;;;;;;;;;;4988974;28;20026;-57
2023/09/17 05:41:30;;;;;;;2.47;1.80;;;;;;;;;;4990277;28;20034;-58
2023/09/17 05:43:57;;;;;;;1.77;1.20;;;;;;;;;;4994589;28;20093;-57
2023/09/17 05:46:24;;;;;;;4.87;1.90;;;;;;;;;;4995517;28;20030;-57
2023/09/17 05:48:50;;;;;;;2.87;1.97;;;;;;;;;;4995802;28;20054;-57
2023/09/17 05:51:17;;;;;;;3.53;1.83;;;;;;;;;;4995736;28;20066;-58
2023/09/17 05:53:43;;;;;;;2.90;1.57;;;;;;;;;;4995482;28;20385;-57
2023/09/17 05:56:11;;;;;;;17.43;2.47;;;;;;;;;;4991244;28;20045;-57
2023/09/17 05:58:37;;;;;;;3.50;2.33;;;;;;;;;;4989958;28;20038;-57
2023/09/17 06:01:04;;;;;;;2.50;1.80;;;;;;;;;;4990006;28;20035;-57
2023/09/17 06:03:31;;;;;;;1.97;1.50;;;;;;;;;;4989636;28;20061;-57
2023/09/17 06:05:58;;;;;;;4.07;2.30;;;;;;;;;;4993206;28;20026;-58
2023/09/17 06:08:28;;;;;;;4.57;2.43;;;;;;;;;;4995107;28;20030;-57
2023/09/17 06:10:55;;;;;;;3.03;2.23;;;;;;;;;;4994905;28;20030;-57
2023/09/17 06:13:22;;;;;;;8.00;2.43;;;;;;;;;;4994957;28;20110;-60
2023/09/17 06:15:49;;;;;;;2.73;1.87;;;;;;;;;;4989949;28;20121;-57
2023/09/17 06:18:19;;;;;;;3.83;1.63;;;;;;;;;;4991351;28;20038;-57
2023/09/17 06:20:45;;;;;;;4.03;1.97;;;;;;;;;;4989107;28;20018;-57
2023/09/17 06:23:12;;;;;;;2.30;1.77;;;;;;;;;;4988772;28;20038;-57
2023/09/17 06:25:39;;;;;;;3.00;1.93;;;;;;;;;;4989818;28;20058;-57
2023/09/17 06:28:06;;;;;;;4.40;1.93;;;;;;;;;;4992206;28;20445;-57
2023/09/17 06:30:33;;;;;;;3.70;2.07;;;;;;;;;;4994395;28;20508;-57
2023/09/17 06:33:01;;;;;;;2.33;1.87;;;;;;;;;;4994558;28;20438;-57
2023/09/17 06:35:28;;;;;;;1.33;1.03;;;;;;;;;;4994933;28;20119;-57
2023/09/17 06:37:54;;;;;;;2.13;1.63;;;;;;;;;;4993787;28;20045;-57
2023/09/17 06:40:21;;;;;;;3.17;2.30;;;;;;;;;;4992508;28;20023;-57
2023/09/17 06:42:48;;;;;;;2.53;1.80;;;;;;;;;;4989403;28;20026;-57
2023/09/17 06:45:15;;;;;;;2.27;1.50;;;;;;;;;;4988694;28;20038;-57
2023/09/17 06:47:41;;;;;;;5.43;1.83;;;;;;;;;;4989183;28;20022;-57
2023/09/17 06:50:08;;;;;;;2.90;1.97;;;;;;;;;;4990171;28;20029;-57
2023/09/17 06:52:35;;;;;;;4.03;1.90;;;;;;;;;;4994719;28;20749;-57
2023/09/17 06:55:03;;;;;;;5.37;2.00;;;;;;;;;;4994345;28;20030;-57
2023/09/17 06:57:30;;;;;;;2.97;1.70;;;;;;;;;;4994210;28;20046;-57
2023/09/17 06:59:57;;;;;;;1.87;1.53;;;;;;;;;;4994236;28;20030;-57
2023/09/17 07:02:24;;;;;;;1.27;0.90;;;;;;;;;;4992862;28;20076;-57
2023/09/17 07:04:50;;;;;;;3.63;1.60;;;;;;;;;;4988906;28;20030;-56
2023/09/17 07:07:17;;;;;;;2.10;1.70;;;;;;;;;;4988502;28;20386;-57
2023/09/17 07:09:44;;;;;;;1.80;1.40;;;;;;;;;;4989065;28;20105;-56
2023/09/17 07:12:10;;;;;;;3.10;1.90;;;;;;;;;;4989078;28;20397;-57
2023/09/17 07:14:37;;;;;;;2.20;1.80;;;;;;;;;;4993929;28;20030;-57
2023/09/17 07:17:04;;;;;;;2.50;1.73;;;;;;;;;;4994011;28;20026;-57
2023/09/17 07:19:33;;;;;;;1.53;1.17;;;;;;;;;;4993700;28;20034;-57
2023/09/17 07:22:00;;;;;;;2.03;1.57;;;;;;;;;;4993758;28;20030;-57
2023/09/17 07:24:26;;;;;;;2.00;1.60;;;;;;;;;;4993788;28;20029;-58
2023/09/17 07:26:53;;;;;;;7.63;2.00;;;;;;;;;;4988162;28;20065;-58
2023/09/17 07:29:20;;;;;;;1.73;1.43;;;;;;;;;;4988482;28;20025;-57
2023/09/17 07:31:49;;;;;;;4.77;2.03;;;;;;;;;;4988388;28;20125;-57
2023/09/17 07:34:16;;;;;;;2.73;2.00;;;;;;;;;;4988126;28;20489;-57
2023/09/17 07:36:42;;;;;;;3.57;2.20;;;;;;;;;;4993221;28;20026;-57
2023/09/17 07:39:09;;;;;;;4.27;2.23;;;;;;;;;;4993659;28;20034;-57
2023/09/17 07:41:36;;;;;;;6.57;2.70;;;;;;;;;;4993667;28;20476;-56
2023/09/17 07:44:02;;;;;;;1.90;1.63;;;;;;;;;;4993363;28;20056;-57
2023/09/17 07:46:29;;;;;;;3.33;2.20;;;;;;;;;;4993015;28;20030;-57
2023/09/17 07:48:56;;;;;;;3.40;2.33;;;;;;;;;;4988203;28;20038;-57
2023/09/17 07:51:22;;;;;;;2.90;1.83;;;;;;;;;;4987550;28;20505;-56
2023/09/17 07:53:49;;;;;;;4.33;2.90;;;;;;;;;;4988080;28;20026;-57
2023/09/17 07:56:15;;;;;;;7.57;2.37;;;;;;;;;;4988339;28;20033;-57
2023/09/17 07:58:42;;;;;;;3.97;2.70;;;;;;;;;;4991723;28;20088;-57
2023/09/17 08:01:11;;;;;;;3.23;2.10;;;;;;;;;;4993447;28;20029;-57
2023/09/17 08:03:37;;;;;;;3.07;2.23;;;;;;;;;;4992786;28;20035;-56
2023/09/17 08:06:05;;;;;;;2.00;1.67;;;;;;;;;;4992744;28;20018;-58
2023/09/17 08:08:32;;;;;;;2.70;1.77;;;;;;;;;;4992950;28;20037;-57
2023/09/17 08:10:58;;;;;;;3.73;2.13;;;;;;;;;;4989021;28;20110;-57
2023/09/17 08:13:25;;;;;;;5.83;2.67;;;;;;;;;;4987401;28;20033;-57
2023/09/17 08:15:52;;;;;;;6.73;2.67;;;;;;;;;;4999466;28;20543;-57
2023/09/17 08:18:18;;;;;;;4.50;2.20;;;;;;;;;;5007509;28;20034;-57
2023/09/17 08:20:45;;;;;;;1.87;1.57;;;;;;;;;;4990841;28;20080;-57
2023/09/17 08:23:11;;;;;;;3.30;1.90;;;;;;;;;;4992958;28;20069;-57
2023/09/17 08:25:38;;;;;;;2.83;1.90;;;;;;;;;;4992870;28;20027;-57
2023/09/17 08:28:06;;;;;;;2.63;2.10;;;;;;;;;;4992188;28;20033;-57
2023/09/17 08:30:33;;;;;;;2.33;1.90;;;;;;;;;;4992426;28;20038;-55
2023/09/17 08:33:01;;;;;;;2.70;1.83;;;;;;;;;;4989458;28;21949;-55
2023/09/17 08:35:27;;;;;;;3.17;2.27;;;;;;;;;;4987181;28;20030;-55
2023/09/17 08:37:55;;;;;;;2.17;1.40;;;;;;;;;;4986979;28;20389;-56
2023/09/17 08:40:24;;;;;;;5.93;3.70;;;;;;;;;;4987365;28;20516;-57
2023/09/17 08:42:51;;;;;;;2.37;1.97;;;;;;;;;;4988658;28;20038;-57
2023/09/17 08:45:18;;;;;;;2.57;2.03;;;;;;;;;;4992335;28;20034;-57
2023/09/17 08:47:45;;;;;;;3.00;2.37;;;;;;;;;;4992822;28;20034;-57
2023/09/17 08:50:12;;;;;;;2.33;1.70;;;;;;;;;;4992548;28;20485;-57
2023/09/17 08:52:41;;;;;;;2.93;2.27;;;;;;;;;;4992441;28;20043;-57
2023/09/17 08:55:09;;;;;;;3.70;2.40;;;;;;;;;;4990086;28;20042;-57
2023/09/17 08:57:38;;;;;;;3.77;2.53;;;;;;;;;;4986977;28;20038;-57
2023/09/17 09:00:08;;;;;;;6.23;3.00;;;;;;;;;;4986720;28;20374;-57
2023/09/17 09:02:39;;;;;;;4.57;3.03;;;;;;;;;;4992987;28;20030;-57
2023/09/17 09:05:06;;;;;;;5.60;3.33;;;;;;;;;;4994517;28;20030;-56
2023/09/17 09:07:33;;;;;;;2.93;2.40;;;;;;;;;;4998872;28;20084;-57
2023/09/17 09:10:00;;;;;;;3.90;1.90;;;;;;;;;;4998648;28;20072;-57
2023/09/17 09:12:26;;;;;;;2.80;2.40;;;;;;;;;;4998706;28;20105;-57
2023/09/17 09:14:53;;;;;;;6.50;3.00;;;;;;;;;;4998714;28;20034;-57
2023/09/17 09:17:20;;;;;;;4.40;2.60;;;;;;;;;;4997449;28;20034;-57
2023/09/17 09:19:47;;;;;;;4.07;2.63;;;;;;;;;;4992906;28;20030;-57
2023/09/17 09:22:13;;;;;;;3.10;2.23;;;;;;;;;;4993428;28;20038;-57
2023/09/17 09:24:43;;;;;;;4.83;3.27;;;;;;;;;;4993378;28;20030;-57
2023/09/17 09:27:10;;;;;;;4.47;2.57;;;;;;;;;;4993693;28;20026;-57
2023/09/17 09:29:37;;;;;;;1.87;1.47;;;;;;;;;;4998508;28;20066;-57
2023/09/17 09:32:04;;;;;;;2.20;1.73;;;;;;;;;;4998777;28;20021;-57
2023/09/17 09:34:31;;;;;;;3.33;2.30;;;;;;;;;;4998209;28;20032;-56
2023/09/17 09:36:58;;;;;;;2.63;2.23;;;;;;;;;;4998563;28;20037;-57
2023/09/17 09:39:24;;;;;;;8.93;2.93;;;;;;;;;;4998314;28;20026;-56
2023/09/17 09:41:51;;;;;;;4.90;2.27;;;;;;;;;;4993220;28;20034;-56
2023/09/17 09:44:18;;;;;;;2.30;1.83;;;;;;;;;;4993281;28;20105;-57
2023/09/17 09:46:44;;;;;;;3.40;2.50;;;;;;;;;;4993081;28;20061;-56
2023/09/17 09:49:11;;;;;;;3.33;2.73;;;;;;;;;;4993336;28;20433;-56
2023/09/17 09:51:38;;;;;;;4.03;3.23;;;;;;;;;;4997713;28;20069;-57
2023/09/17 09:54:05;;;;;;;4.37;2.97;;;;;;;;;;4998352;28;20030;-56
2023/09/17 09:56:31;;;;;;;5.17;3.63;;;;;;;;;;4998264;28;20049;-57
2023/09/17 09:59:00;;;;;;;3.47;2.50;;;;;;;;;;4998469;28;20046;-56
2023/09/17 10:01:28;;;;;;;2.60;2.00;;;;;;;;;;4998543;28;20026;-56
2023/09/17 10:03:58;;;;;;;4.80;3.47;;;;;;;;;;4993221;28;20110;-57
2023/09/17 10:06:24;;;;;;;2.73;2.17;;;;;;;;;;4993143;28;20542;-58
2023/09/17 10:08:52;;;;;;;2.30;1.83;;;;;;;;;;4992267;28;20022;-57
2023/09/17 10:11:19;;;;;;;3.67;2.33;;;;;;;;;;4992745;28;20038;-56
2023/09/17 10:13:46;;;;;;;5.07;2.90;;;;;;;;;;4993383;28;20045;-56
2023/09/17 10:16:14;;;;;;;3.63;2.47;;;;;;;;;;4994813;28;20065;-56
2023/09/17 10:18:42;;;;;;;4.13;2.57;;;;;;;;;;4994872;28;20490;-56
2023/09/17 10:21:10;;;;;;;5.00;3.07;;;;;;;;;;4994774;28;20096;-56
2023/09/17 10:23:37;;;;;;;3.37;2.43;;;;;;;;;;4994334;28;20427;-57
2023/09/17 10:26:04;;;;;;;5.07;2.80;;;;;;;;;;4990731;28;20474;-57
2023/09/17 10:28:36;;;;;;;4.47;3.23;;;;;;;;;;4989833;28;20026;-56
2023/09/17 10:31:03;;;;;;;5.77;3.00;;;;;;;;;;4989400;28;20478;-56
2023/09/17 10:33:31;;;;;;;4.07;2.70;;;;;;;;;;4989754;28;20037;-57
2023/09/17 10:35:58;;;;;;;4.10;2.73;;;;;;;;;;4992194;28;20041;-57
2023/09/17 10:38:26;;;;;;;4.70;3.23;;;;;;;;;;4994808;28;20034;-56
2023/09/17 10:40:53;;;;;;;10.53;2.27;;;;;;;;;;4993737;28;20041;-57
2023/09/17 10:43:21;;;;;;;3.27;2.27;;;;;;;;;;4993727;28;20381;-56
2023/09/17 10:45:48;;;;;;;2.83;1.80;;;;;;;;;;4993602;28;20030;-58
2023/09/17 10:48:15;;;;;;;3.40;2.43;;;;;;;;;;4991285;28;20037;-57
2023/09/17 10:50:42;;;;;;;3.27;2.60;;;;;;;;;;4989344;28;20872;-56
2023/09/17 10:53:09;;;;;;;3.13;2.37;;;;;;;;;;4989404;28;20026;-56
2023/09/17 10:55:40;;;;;;;4.60;2.87;;;;;;;;;;4988807;28;20034;-57
2023/09/17 10:58:10;;;;;;;3.73;2.60;;;;;;;;;;4991643;28;20050;-57
2023/09/17 11:00:39;;;;;;;3.00;2.37;;;;;;;;;;4994451;28;20084;-56
2023/09/17 11:03:06;;;;;;;3.40;2.83;;;;;;;;;;4994209;28;20030;-57
2023/09/17 11:05:33;;;;;;;2.70;2.13;;;;;;;;;;4994440;28;20042;-56
2023/09/17 11:08:02;;;;;;;4.07;2.47;;;;;;;;;;4994203;28;20525;-56
2023/09/17 11:10:29;;;;;;;2.50;1.93;;;;;;;;;;4991198;28;20092;-56
2023/09/17 11:12:56;;;;;;;3.57;2.40;;;;;;;;;;4988837;28;20034;-56
2023/09/17 11:15:23;;;;;;;2.67;2.17;;;;;;;;;;4988515;28;20039;-56
2023/09/17 11:17:51;;;;;;;2.83;2.20;;;;;;;;;;4988979;28;20113;-56
2023/09/17 11:20:18;;;;;;;3.10;2.33;;;;;;;;;;4990258;28;20061;-56
2023/09/17 11:22:50;;;;;;;3.03;2.20;;;;;;;;;;4994239;28;20034;-56
2023/09/17 11:25:34;;;;;;;2.87;2.30;;;;;;;;;;4993749;28;20493;-57
2023/09/17 11:28:09;;;;;;;4.47;2.27;;;;;;;;;;4993817;28;20532;-57
2023/09/17 11:30:56;;;;;;;2.77;2.07;;;;;;;;;;4993012;28;20066;-56
2023/09/17 11:33:23;;;;;;;3.77;2.60;;;;;;;;;;4989947;28;20450;-56
2023/09/17 11:35:49;;;;;;;5.17;3.07;;;;;;;;;;4988198;28;20066;-57
2023/09/17 11:38:16;;;;;;;7.80;2.53;;;;;;;;;;4988166;28;20084;-57
2023/09/17 11:40:43;;;;;;;3.30;2.53;;;;;;;;;;4988626;28;20055;-56
2023/09/17 11:43:12;;;;;;;4.93;3.03;;;;;;;;;;4990863;28;20135;-57
2023/09/17 11:45:39;;;;;;;4.57;2.07;;;;;;;;;;4993352;28;20117;-57
2023/09/17 11:48:07;;;;;;;5.93;2.73;;;;;;;;;;4993292;28;20026;-56
2023/09/17 11:50:34;;;;;;;4.87;3.10;;;;;;;;;;4993636;28;20523;-56
2023/09/17 11:53:07;;;;;;;4.07;2.60;;;;;;;;;;4993397;28;20026;-56
2023/09/17 11:55:34;;;;;;;6.20;3.27;;;;;;;;;;4989554;28;20084;-56
2023/09/17 11:58:19;;;;;;;2.60;1.90;;;;;;;;;;4987539;28;20038;-56
2023/09/17 12:00:46;;;;;;;2.72;2.08;;;;;;;;;;4988081;28;20555;-56
2023/09/17 12:03:14;;;;;;;2.83;2.20;;;;;;;;;;4987974;28;20444;-56
2023/09/17 12:05:41;;;;;;;2.87;2.23;;;;;;;;;;4991143;28;20034;-56
2023/09/17 12:08:07;;;;;;;3.20;2.30;;;;;;;;;;4993094;28;20093;-57
2023/09/17 12:10:37;;;;;;;4.27;2.37;;;;;;;;;;4992964;28;20057;-57
2023/09/17 12:13:06;;;;;;;2.63;1.77;;;;;;;;;;4992715;28;20038;-56
2023/09/17 12:15:33;;;;;;;2.57;1.70;;;;;;;;;;4993088;28;20474;-56
2023/09/17 12:18:00;;;;;;;3.27;1.97;;;;;;;;;;4989335;28;20050;-56
2023/09/17 12:20:49;;;;;;;3.00;2.00;;;;;;;;;;4987302;28;20045;-57
2023/09/17 12:23:22;;;;;;;4.17;3.13;;;;;;;;;;4987078;28;20464;-56
2023/09/17 12:25:49;;;;;;;3.50;2.30;;;;;;;;;;4987023;28;20450;-57
2023/09/17 12:28:15;;;;;;;2.40;2.10;;;;;;;;;;4990776;28;20128;-56
2023/09/17 12:30:42;;;;;;;3.37;2.07;;;;;;;;;;4992938;28;20031;-56
2023/09/17 12:33:09;;;;;;;4.63;2.80;;;;;;;;;;4992816;28;20026;-56
2023/09/17 12:35:36;;;;;;;2.80;2.37;;;;;;;;;;4992317;28;20034;-56
2023/09/17 12:38:03;;;;;;;2.60;2.10;;;;;;;;;;4992443;28;20046;-56
2023/09/17 12:40:30;;;;;;;3.70;2.90;;;;;;;;;;4989245;28;20445;-56
2023/09/17 12:42:57;;;;;;;4.70;2.87;;;;;;;;;;4986756;28;20045;-56
2023/09/17 12:45:24;;;;;;;4.27;3.17;;;;;;;;;;4987150;28;20539;-56
2023/09/17 12:47:50;;;;;;;6.97;2.70;;;;;;;;;;4987067;28;20486;-57
2023/09/17 12:50:19;;;;;;;3.20;2.17;;;;;;;;;;4989723;28;20120;-56
2023/09/17 12:52:45;;;;;;;4.00;2.57;;;;;;;;;;4992156;28;20031;-54
2023/09/17 12:55:12;;;;;;;3.10;2.27;;;;;;;;;;4992643;28;20482;-54
2023/09/17 12:57:40;;;;;;;5.87;3.40;;;;;;;;;;4992130;28;20026;-54
2023/09/17 13:00:07;;;;;;;14.37;3.37;;;;;;;;;;4992360;28;20081;-54
2023/09/17 13:02:34;;;;;;;5.57;2.77;;;;;;;;;;4989679;28;20045;-54
2023/09/17 13:05:01;;;;;;;3.87;2.80;;;;;;;;;;4987112;28;20145;-54
2023/09/17 13:07:28;;;;;;;3.10;2.27;;;;;;;;;;4986990;28;20030;-54
2023/09/17 13:09:59;;;;;;;11.00;3.93;;;;;;;;;;4987315;28;20474;-55
2023/09/17 13:12:27;;;;;;;5.97;3.53;;;;;;;;;;4988624;28;20429;-54
2023/09/17 13:14:55;;;;;;;3.40;2.83;;;;;;;;;;4992152;28;20027;-54
2023/09/17 13:17:22;;;;;;;3.43;2.53;;;;;;;;;;4992181;28;20038;-56
2023/09/17 13:19:49;;;;;;;3.23;2.60;;;;;;;;;;4991988;28;20030;-54
2023/09/17 13:22:17;;;;;;;2.70;2.13;;;;;;;;;;4991660;28;20077;-55
2023/09/17 13:24:47;;;;;;;3.30;2.70;;;;;;;;;;4990559;28;20054;-55
2023/09/17 13:27:17;;;;;;;2.83;2.33;;;;;;;;;;4986655;28;20023;-55
2023/09/17 13:29:47;;;;;;;2.60;2.20;;;;;;;;;;4987083;28;20093;-57
2023/09/17 13:32:14;;;;;;;4.00;3.03;;;;;;;;;;4986606;28;20037;-56
2023/09/17 13:34:45;;;;;;;7.70;3.23;;;;;;;;;;4987542;28;20081;-57
2023/09/17 13:37:12;;;;;;;5.23;2.53;;;;;;;;;;4991971;28;20046;-56
2023/09/17 13:39:39;;;;;;;3.93;3.03;;;;;;;;;;4992018;28;20382;-56
2023/09/17 13:42:07;;;;;;;3.17;2.30;;;;;;;;;;4992010;28;20032;-56
2023/09/17 13:44:36;;;;;;;2.47;2.13;;;;;;;;;;4992030;28;20058;-57
2023/09/17 13:47:03;;;;;;;4.30;3.00;;;;;;;;;;4990461;28;20026;-56
2023/09/17 13:49:31;;;;;;;3.40;2.70;;;;;;;;;;4989121;28;20490;-56
2023/09/17 13:51:57;;;;;;;2.30;1.80;;;;;;;;;;4990189;28;20034;-57
2023/09/17 13:54:24;;;;;;;3.40;2.37;;;;;;;;;;4990254;28;20030;-57
2023/09/17 13:56:51;;;;;;;3.53;2.53;;;;;;;;;;4990521;28;20382;-57
2023/09/17 13:59:17;;;;;;;3.83;2.40;;;;;;;;;;4995581;28;20023;-57
2023/09/17 14:01:45;;;;;;;2.80;2.10;;;;;;;;;;4995794;28;20061;-57
2023/09/17 14:04:11;;;;;;;17.73;2.57;;;;;;;;;;4995353;28;20034;-58
2023/09/17 14:06:38;;;;;;;11.90;2.30;;;;;;;;;;4995362;28;20034;-57
2023/09/17 14:09:05;;;;;;;2.13;1.67;;;;;;;;;;4994739;28;20025;-57
2023/09/17 14:11:32;;;;;;;2.30;1.63;;;;;;;;;;4989859;28;20065;-57
2023/09/17 14:13:58;;;;;;;2.30;1.87;;;;;;;;;;4989741;28;20023;-57
2023/09/17 14:16:25;;;;;;;3.63;1.73;;;;;;;;;;4994760;28;20572;-57
2023/09/17 14:18:52;;;;;;;2.53;1.40;;;;;;;;;;5009328;28;20038;-58
2023/09/17 14:21:18;;;;;;;2.27;1.77;;;;;;;;;;5003144;28;20113;-57
2023/09/17 14:23:45;;;;;;;3.20;2.27;;;;;;;;;;4995071;28;20382;-57
2023/09/17 14:26:12;;;;;;;5.20;2.20;;;;;;;;;;4994724;28;20027;-58
2023/09/17 14:28:38;;;;;;;3.93;2.17;;;;;;;;;;4995270;28;20030;-57
2023/09/17 14:31:05;;;;;;;8.57;2.20;;;;;;;;;;4995076;28;20355;-58
2023/09/17 14:33:31;;;;;;;3.33;2.07;;;;;;;;;;4989541;28;20394;-58
2023/09/17 14:35:58;;;;;;;2.20;1.77;;;;;;;;;;4970189;28;20510;-58
2023/09/17 14:38:25;;;;;;;1.83;1.33;;;;;;;;;;4983221;28;20512;-57
2023/09/17 14:40:51;;;;;;;2.30;1.80;;;;;;;;;;4988928;28;20030;-57
2023/09/17 14:43:18;;;;;;;5.67;1.87;;;;;;;;;;4993471;28;20030;-57
2023/09/17 14:45:45;;;;;;;3.03;1.57;;;;;;;;;;4994889;28;20038;-57